Time;durP1;ratioP1;P1;durP2;ratioP2;P2;SDS_P1;SDS_P2;PMS_P1;PMS_P2;Temp;Humidity;BMP_temperature;BMP_pressure;BME280_temperature;BME280_humidity;BME280_pressure;Samples;Min_cycle;Max_cycle;Signal;HPM_P1;HPM_P2
2023/08/03 00:02:01;;;;;;;4.30;2.60;;;;;;;20.05;61.13;98997.17;102624;277;121013;-54
2023/08/03 00:04:44;;;;;;;4.20;2.60;;;;;;;20.04;61.24;99000.95;102624;277;103864;-54
2023/08/03 00:07:22;;;;;;;3.30;2.70;;;;;;;20.04;61.29;98998.55;102605;277;112561;-54
2023/08/03 00:10:00;;;;;;;3.30;2.50;;;;;;;20.05;61.24;98988.52;102631;277;94425;-55
2023/08/03 00:12:37;;;;;;;5.00;2.70;;;;;;;20.06;61.40;98987.85;102687;277;98373;-52
2023/08/03 00:15:13;;;;;;;5.90;2.70;;;;;;;20.05;61.50;98983.58;102577;277;120375;-52
2023/08/03 00:17:52;;;;;;;5.00;2.70;;;;;;;20.07;61.35;98977.09;102666;277;104855;-54
2023/08/03 00:20:33;;;;;;;3.20;2.40;;;;;;;20.09;61.46;98972.23;102602;277;114377;-54
2023/08/03 00:23:17;;;;;;;5.10;2.40;;;;;;;20.09;61.38;98968.95;102642;277;93557;-52
2023/08/03 00:25:55;;;;;;;6.00;2.40;;;;;;;20.09;61.57;98969.73;102579;277;97401;-53
2023/08/03 00:28:37;;;;;;;4.00;2.50;;;;;;;20.09;61.69;98981.29;102576;277;119809;-56
2023/08/03 00:31:18;;;;;;;3.10;2.50;;;;;;;20.11;61.50;98965.86;102579;277;105773;-57
2023/08/03 00:34:05;;;;;;;3.50;2.80;;;;;;;20.11;61.66;98958.59;102548;277;114820;-57
2023/08/03 00:36:48;;;;;;;2.70;2.40;;;;;;;20.10;61.62;98955.30;102499;279;93255;-54
2023/08/03 00:39:32;;;;;;;3.70;2.90;;;;;;;20.10;61.75;98961.38;102517;279;97060;-52
2023/08/03 00:42:08;;;;;;;4.60;2.70;;;;;;;20.11;61.62;98963.67;102540;290;120847;-53
2023/08/03 00:44:48;;;;;;;3.60;2.50;;;;;;;20.11;61.63;98958.14;102544;279;106310;-54
2023/08/03 00:47:24;;;;;;;3.40;2.70;;;;;;;20.12;61.70;98950.12;102578;278;113940;-53
2023/08/03 00:50:02;;;;;;;5.30;2.60;;;;;;;20.12;61.69;98944.14;102573;279;93057;-53
2023/08/03 00:52:47;;;;;;;5.20;2.70;;;;;;;20.14;61.68;98950.15;102603;279;98500;-56
2023/08/03 00:55:24;;;;;;;7.10;3.80;;;;;;;20.16;61.83;98955.67;102578;279;119535;-57
2023/08/03 00:58:03;;;;;;;4.80;2.50;;;;;;;20.17;61.78;98954.80;102593;278;103576;-54
2023/08/03 01:00:46;;;;;;;3.50;2.50;;;;;;;20.17;61.92;98945.40;102548;279;113458;-54
2023/08/03 01:03:32;;;;;;;3.40;2.30;;;;;;;20.17;61.81;98934.17;102550;279;95052;-54
2023/08/03 01:06:16;;;;;;;5.50;2.70;;;;;;;20.17;61.86;98934.73;102558;279;98469;-54
2023/08/03 01:09:00;;;;;;;3.70;2.70;;;;;;;20.16;62.02;98937.98;102424;279;119349;-54
2023/08/03 01:11:40;;;;;;;4.40;2.60;;;;;;;20.14;62.24;98940.89;102538;278;104295;-54
2023/08/03 01:14:18;;;;;;;4.40;2.80;;;;;;;20.14;62.20;98925.20;102525;279;114675;-54
2023/08/03 01:17:04;;;;;;;3.90;2.50;;;;;;;20.12;62.33;98908.50;102528;279;94409;-52
2023/08/03 01:19:44;;;;;;;4.80;2.60;;;;;;;20.13;62.35;98912.22;102544;279;98111;-52
2023/08/03 01:22:23;;;;;;;4.70;2.50;;;;;;;20.12;62.46;98913.11;102499;278;120719;-53
2023/08/03 01:25:06;;;;;;;2.60;2.00;;;;;;;20.12;62.46;98913.88;102529;279;105764;-54
2023/08/03 01:27:53;;;;;;;3.50;2.30;;;;;;;20.11;62.65;98913.71;102548;279;114112;-55
2023/08/03 01:30:30;;;;;;;4.00;2.10;;;;;;;20.11;62.72;98912.79;102583;278;95040;-53
2023/08/03 01:33:17;;;;;;;3.90;2.40;;;;;;;20.11;62.73;98900.88;102569;279;98691;-54
2023/08/03 01:36:00;;;;;;;4.20;2.30;;;;;;;20.09;62.72;98894.31;102552;279;119836;-54
2023/08/03 01:38:37;;;;;;;3.50;2.30;;;;;;;20.07;62.79;98886.72;102512;280;105320;-54
2023/08/03 01:41:14;;;;;;;4.50;2.40;;;;;;;20.05;62.78;98890.80;102500;279;115791;-53
2023/08/03 01:44:17;;;;;;;4.10;2.30;;;;;;;20.02;62.88;98896.02;102521;279;95101;-52
2023/08/03 01:46:57;;;;;;;3.70;2.40;;;;;;;20.00;62.83;98889.67;102565;278;98226;-55
2023/08/03 01:49:37;;;;;;;3.50;2.50;;;;;;;20.00;62.81;98895.55;102606;278;119003;-54
2023/08/03 01:52:19;;;;;;;4.40;2.50;;;;;;;19.98;62.97;98886.14;102555;278;105565;-52
2023/08/03 01:55:02;;;;;;;5.70;2.70;;;;;;;19.95;63.18;98885.98;102524;279;115462;-53
2023/08/03 01:57:42;;;;;;;3.20;2.20;;;;;;;19.94;63.17;98885.69;102513;279;94379;-56
2023/08/03 02:00:27;;;;;;;2.90;2.20;;;;;;;19.93;63.14;98875.11;102544;279;98386;-55
2023/08/03 02:03:05;;;;;;;3.70;2.30;;;;;;;19.91;63.23;98866.84;102515;274;121041;-52
2023/08/03 02:05:47;;;;;;;4.40;2.70;;;;;;;19.90;63.23;98865.98;102539;278;105581;-51
2023/08/03 02:08:23;;;;;;;3.40;2.50;;;;;;;19.90;63.31;98870.02;102542;279;113999;-54
2023/08/03 02:10:59;;;;;;;4.60;2.80;;;;;;;19.93;63.40;98866.28;102501;279;93580;-55
2023/08/03 02:13:43;;;;;;;4.70;2.50;;;;;;;19.96;63.32;98871.84;102529;278;96249;-51
2023/08/03 02:16:22;;;;;;;4.60;2.30;;;;;;;19.99;63.18;98885.86;102519;278;122324;-52
2023/08/03 02:18:58;;;;;;;5.10;2.40;;;;;;;20.00;63.30;98877.13;102564;279;104630;-52
2023/08/03 02:21:36;;;;;;;4.00;3.10;;;;;;;20.00;63.16;98882.60;102522;279;113813;-52
2023/08/03 02:24:13;;;;;;;4.10;2.80;;;;;;;19.99;63.08;98877.63;102587;279;95092;-53
2023/08/03 02:26:53;;;;;;;5.80;2.20;;;;;;;19.97;63.20;98867.51;102607;279;98143;-52
2023/08/03 02:29:30;;;;;;;5.10;2.90;;;;;;;19.96;63.24;98862.20;102554;279;121068;-52
2023/08/03 02:32:11;;;;;;;3.90;2.60;;;;;;;19.96;63.12;98860.88;102587;278;104830;-51
2023/08/03 02:34:54;;;;;;;4.00;2.50;;;;;;;19.97;63.54;98874.35;102528;278;114556;-52
2023/08/03 02:37:31;;;;;;;3.20;2.20;;;;;;;19.94;63.91;98901.68;102498;279;96961;-57
2023/08/03 02:40:10;;;;;;;4.20;2.40;;;;;;;19.89;64.43;98914.50;102571;279;98200;-57
2023/08/03 02:42:47;;;;;;;4.70;2.30;;;;;;;19.83;64.60;98885.65;102417;279;120903;-56
2023/08/03 02:45:28;;;;;;;4.10;2.70;;;;;;;19.79;64.85;98888.09;102535;278;105987;-56
2023/08/03 02:48:10;;;;;;;4.20;2.30;;;;;;;19.78;64.97;98894.58;102512;279;115528;-52
2023/08/03 02:50:47;;;;;;;;;;;;;;;19.77;64.88;98878.64;102518;279;94617;-53
2023/08/03 02:53:22;;;;;;;3.50;2.30;;;;;;;19.74;65.08;98896.70;102562;279;98102;-54
2023/08/03 02:56:04;;;;;;;3.90;2.40;;;;;;;19.72;65.15;98902.14;102556;278;120313;-53
2023/08/03 02:58:38;;;;;;;3.40;2.40;;;;;;;19.70;65.25;98914.30;102572;279;104784;-55
2023/08/03 03:01:16;;;;;;;5.20;2.60;;;;;;;19.67;65.35;98917.61;102569;279;114415;-53
2023/08/03 03:03:56;;;;;;;3.20;2.20;;;;;;;19.65;65.38;98931.45;102578;279;94155;-53
2023/08/03 03:06:42;;;;;;;2.50;2.20;;;;;;;19.63;65.46;98947.52;102578;278;97042;-54
2023/08/03 03:09:20;;;;;;;4.60;2.30;;;;;;;19.62;65.42;98934.64;102623;279;119077;-54
2023/08/03 03:11:57;;;;;;;4.50;2.50;;;;;;;19.65;65.40;98934.68;102620;279;104583;-55
2023/08/03 03:14:36;;;;;;;4.20;2.30;;;;;;;19.67;65.44;98937.45;102542;279;114719;-55
2023/08/03 03:17:13;;;;;;;4.30;2.40;;;;;;;19.69;65.51;98921.99;102574;279;95066;-52
2023/08/03 03:19:57;;;;;;;4.60;2.80;;;;;;;19.71;65.42;98933.11;102550;278;97713;-53
2023/08/03 03:22:40;;;;;;;3.80;2.00;;;;;;;19.72;65.30;98917.73;102523;279;120842;-55
2023/08/03 03:25:18;;;;;;;3.80;2.10;;;;;;;19.72;65.38;98897.14;102504;279;106053;-55
2023/08/03 03:27:54;;;;;;;3.00;2.10;;;;;;;19.74;65.30;98866.11;102561;279;115040;-53
2023/08/03 03:30:34;;;;;;;4.10;2.50;;;;;;;19.75;65.43;98854.92;102550;279;94335;-52
2023/08/03 03:33:12;;;;;;;4.40;2.10;;;;;;;19.77;65.22;98842.02;102555;279;96698;-54
2023/08/03 03:35:48;;;;;;;2.90;2.20;;;;;;;19.79;65.32;98808.19;102515;278;120514;-54
2023/08/03 03:38:29;;;;;;;3.50;2.20;;;;;;;19.81;65.21;98738.45;102579;279;105980;-57
2023/08/03 03:41:14;;;;;;;3.90;2.40;;;;;;;19.82;65.02;98734.98;102559;279;115024;-56
2023/08/03 03:43:50;;;;;;;3.30;2.10;;;;;;;19.85;64.81;98832.04;101069;279;1925969;-57
2023/08/03 03:46:29;;;;;;;4.30;2.30;;;;;;;19.86;65.04;98853.80;102643;267;97400;-53
2023/08/03 03:49:08;;;;;;;3.80;2.20;;;;;;;19.84;65.07;98872.50;102617;279;120990;-53
2023/08/03 03:51:44;;;;;;;3.60;2.10;;;;;;;19.85;65.08;98886.58;102614;279;105435;-54
2023/08/03 03:54:23;;;;;;;4.10;2.30;;;;;;;19.88;64.95;98888.31;102533;279;114725;-54
2023/08/03 03:57:04;;;;;;;4.10;2.20;;;;;;;19.91;65.02;98890.13;102566;278;94671;-55
2023/08/03 03:59:41;;;;;;;3.50;2.20;;;;;;;19.96;64.89;98884.06;102553;302;96520;-54
2023/08/03 04:02:20;;;;;;;4.30;1.90;;;;;;;20.02;64.96;98890.87;102607;279;121418;-57
2023/08/03 04:04:58;;;;;;;3.10;2.10;;;;;;;20.08;64.77;98900.52;102601;278;106133;-56
2023/08/03 04:07:43;;;;;;;3.30;1.90;;;;;;;20.14;64.89;98909.86;102521;279;113771;-56
2023/08/03 04:10:20;;;;;;;3.20;1.90;;;;;;;20.20;64.89;98902.89;102518;279;95231;-56
2023/08/03 04:13:04;;;;;;;10.90;3.10;;;;;;;20.22;64.78;98905.00;102552;279;98202;-52
2023/08/03 04:15:40;;;;;;;3.30;2.00;;;;;;;20.23;64.77;98897.33;102523;279;121067;-52
2023/08/03 04:18:15;;;;;;;3.30;2.40;;;;;;;20.24;64.75;98890.05;102514;279;104888;-54
2023/08/03 04:20:58;;;;;;;2.90;1.90;;;;;;;20.23;64.80;98899.96;102541;278;113233;-54
2023/08/03 04:23:48;;;;;;;3.00;2.10;;;;;;;20.25;64.81;98905.61;102493;279;94433;-54
2023/08/03 04:26:26;;;;;;;2.70;2.00;;;;;;;20.27;64.67;98896.92;102584;279;97382;-56
2023/08/03 04:29:08;;;;;;;4.80;1.90;;;;;;;20.27;64.78;98892.64;102599;278;121314;-57
2023/08/03 04:31:44;;;;;;;3.90;1.90;;;;;;;20.30;64.91;98906.67;102626;279;105654;-57
2023/08/03 04:34:31;;;;;;;2.80;2.10;;;;;;;20.33;64.87;98914.59;102577;279;114910;-57
2023/08/03 04:37:07;;;;;;;4.60;2.20;;;;;;;20.38;64.94;98912.96;102569;279;94540;-55
2023/08/03 04:39:47;;;;;;;4.20;2.30;;;;;;;20.44;64.87;98905.20;102586;278;97987;-55
2023/08/03 04:42:30;;;;;;;4.50;1.90;;;;;;;20.50;64.93;98928.42;102562;279;120123;-55
2023/08/03 04:45:11;;;;;;;3.20;2.00;;;;;;;20.57;64.85;98932.61;102558;278;105492;-55
2023/08/03 04:47:48;;;;;;;4.10;2.00;;;;;;;20.64;64.89;98921.96;102593;278;114877;-56
2023/08/03 04:50:34;;;;;;;4.60;2.30;;;;;;;20.77;64.61;98923.40;102564;279;93510;-57
2023/08/03 04:53:12;;;;;;;2.50;1.80;;;;;;;20.90;64.50;98924.73;102553;279;97602;-54
2023/08/03 04:55:55;;;;;;;6.20;2.30;;;;;;;21.02;64.33;98932.89;102506;279;121183;-54
2023/08/03 04:58:36;;;;;;;2.60;1.90;;;;;;;21.16;64.15;98928.14;102541;279;104768;-54
2023/08/03 05:01:20;;;;;;;3.20;2.30;;;;;;;21.48;63.89;98941.27;102541;279;114665;-54
2023/08/03 05:03:59;;;;;;;4.20;2.20;;;;;;;22.72;63.22;98944.21;102515;278;94545;-52
2023/08/03 05:06:43;;;;;;;3.70;2.20;;;;;;;24.42;62.28;98931.41;102547;266;97986;-53
2023/08/03 05:09:24;;;;;;;3.90;2.10;;;;;;;26.57;59.91;98938.70;102516;278;120989;-51
2023/08/03 05:12:02;;;;;;;4.10;2.40;;;;;;;26.99;57.27;98940.15;102429;279;103647;-54
2023/08/03 05:14:39;;;;;;;4.60;2.10;;;;;;;26.38;56.39;98950.95;102525;278;115838;-53
2023/08/03 05:17:23;;;;;;;3.60;1.80;;;;;;;25.83;56.29;98954.02;102556;279;93997;-52
2023/08/03 05:20:03;;;;;;;5.10;2.00;;;;;;;25.23;56.32;98943.09;102502;279;96629;-52
2023/08/03 05:22:48;;;;;;;3.20;2.00;;;;;;;24.62;56.55;98947.96;102575;279;120616;-57
2023/08/03 05:25:25;;;;;;;4.20;2.00;;;;;;;24.28;56.90;98942.33;102565;279;106670;-56
2023/08/03 05:28:07;;;;;;;6.30;2.10;;;;;;;23.87;57.35;98920.63;102506;279;112802;-54
2023/08/03 05:30:50;;;;;;;4.00;1.90;;;;;;;23.43;57.92;98943.80;102503;278;94064;-53
2023/08/03 05:33:32;;;;;;;3.50;2.00;;;;;;;23.06;58.52;98934.30;102519;279;99348;-54
2023/08/03 05:36:12;;;;;;;4.00;2.00;;;;;;;22.74;59.03;98951.66;102516;267;119371;-54
2023/08/03 05:38:54;;;;;;;3.80;1.80;;;;;;;22.44;59.59;98952.52;102573;279;105734;-52
2023/08/03 05:41:35;;;;;;;5.10;3.20;;;;;;;22.28;60.19;98955.48;102589;279;114262;-54
2023/08/03 05:44:14;;;;;;;5.10;2.20;;;;;;;22.17;60.58;98921.73;102519;278;94898;-53
2023/08/03 05:46:52;;;;;;;5.30;2.20;;;;;;;22.10;60.99;98924.15;102555;278;98050;-57
2023/08/03 05:49:38;;;;;;;3.80;1.90;;;;;;;22.10;61.21;98929.84;102516;278;120745;-57
2023/08/03 05:52:21;;;;;;;4.80;2.20;;;;;;;22.07;61.59;98942.58;102514;279;104180;-56
2023/08/03 05:55:01;;;;;;;3.10;1.80;;;;;;;22.06;61.88;98933.77;102542;279;114720;-56
2023/08/03 05:57:48;;;;;;;3.60;1.80;;;;;;;22.11;62.15;98942.17;102561;279;94705;-54
2023/08/03 06:00:24;;;;;;;3.20;2.00;;;;;;;22.25;62.31;98957.58;102557;278;98595;-54
2023/08/03 06:03:01;;;;;;;6.00;1.80;;;;;;;22.42;62.36;98970.39;102548;279;119822;-52
2023/08/03 06:05:45;;;;;;;3.80;2.00;;;;;;;22.61;62.37;98966.32;102585;279;106651;-53
2023/08/03 06:08:24;;;;;;;3.30;2.00;;;;;;;22.86;62.26;98977.55;102577;271;112373;-50
2023/08/03 06:11:20;;;;;;;3.10;1.80;;;;;;;23.22;62.25;98995.31;102536;279;94928;-54
2023/08/03 06:13:56;;;;;;;4.40;2.00;;;;;;;23.68;61.64;98988.67;102455;279;98006;-53
2023/08/03 06:16:35;;;;;;;3.20;1.80;;;;;;;23.68;61.20;99009.32;102574;279;119710;-54
2023/08/03 06:19:13;;;;;;;3.10;1.70;;;;;;;23.59;61.13;99023.95;102543;279;104153;-54
2023/08/03 06:22:11;;;;;;;5.90;1.90;;;;;;;23.41;61.32;99020.90;102529;279;112965;-52
2023/08/03 06:24:48;;;;;;;3.50;2.00;;;;;;;23.33;61.28;99033.99;102543;279;93915;-53
2023/08/03 06:27:31;;;;;;;5.40;1.90;;;;;;;23.28;61.46;99029.30;102567;279;96789;-53
2023/08/03 06:30:18;;;;;;;6.50;2.10;;;;;;;23.24;61.64;99027.96;102535;278;121490;-55
2023/08/03 06:32:58;;;;;;;7.50;2.20;;;;;;;23.16;61.69;99025.83;102523;302;104595;-52
2023/08/03 06:35:46;;;;;;;3.60;2.00;;;;;;;23.16;61.95;99017.30;102531;279;114111;-52
2023/08/03 06:38:25;;;;;;;2.80;1.80;;;;;;;23.17;61.85;99012.20;102565;279;95232;-55
2023/08/03 06:41:13;;;;;;;6.60;2.10;;;;;;;23.13;61.99;98986.23;102538;279;96581;-54
2023/08/03 06:43:56;;;;;;;2.90;1.60;;;;;;;23.39;62.29;98997.28;102523;279;120266;-56
2023/08/03 06:46:40;;;;;;;4.40;2.20;;;;;;;23.81;62.13;99027.02;102541;279;105307;-52
2023/08/03 06:49:34;;;;;;;3.50;1.60;;;;;;;24.39;61.39;99015.38;102380;280;114580;-52
2023/08/03 06:52:13;;;;;;;4.60;1.90;;;;;;;24.78;60.63;98978.22;102575;278;94000;-52
2023/08/03 06:54:50;;;;;;;4.20;1.60;;;;;;;24.83;60.34;98978.27;102581;279;98627;-52
2023/08/03 06:57:27;;;;;;;3.00;1.80;;;;;;;24.83;60.08;98966.92;102601;279;120609;-52
2023/08/03 07:00:07;;;;;;;3.60;2.00;;;;;;;24.76;59.59;98908.71;102599;279;105186;-53
2023/08/03 07:02:46;;;;;;;2.60;2.00;;;;;;;24.63;59.56;98881.83;102564;278;113573;-57
2023/08/03 07:05:27;;;;;;;2.40;2.00;;;;;;;24.50;59.61;98894.82;102596;278;94768;-56
2023/08/03 07:08:08;;;;;;;3.20;1.70;;;;;;;24.41;59.61;98928.75;102571;279;97232;-52
2023/08/03 07:10:44;;;;;;;3.40;1.90;;;;;;;24.38;59.83;98993.09;102541;279;120708;-52
2023/08/03 07:13:24;;;;;;;3.10;1.90;;;;;;;24.42;60.10;99004.59;102531;279;106031;-61
2023/08/03 07:16:08;;;;;;;4.10;2.10;;;;;;;24.64;60.06;99023.42;102491;279;114611;-62
2023/08/03 07:18:47;;;;;;;7.90;2.30;;;;;;;25.09;59.75;99030.05;102497;279;95008;-61
2023/08/03 07:21:32;;;;;;;3.60;2.00;;;;;;;25.16;59.12;99011.10;102518;275;98148;-60
2023/08/03 07:24:17;;;;;;;3.30;1.90;;;;;;;25.03;58.94;99011.91;102486;279;121283;-61
2023/08/03 07:26:54;;;;;;;3.40;1.80;;;;;;;24.70;59.05;98992.83;102552;278;105275;-60
2023/08/03 07:29:34;;;;;;;3.30;1.80;;;;;;;24.47;59.01;98989.00;102559;279;113443;-59
2023/08/03 07:32:22;;;;;;;2.50;1.80;;;;;;;24.35;59.33;99010.38;102540;278;94526;-62
2023/08/03 07:34:58;;;;;;;4.00;1.90;;;;;;;24.27;59.60;99060.48;102514;279;98441;-61
2023/08/03 07:37:37;;;;;;;2.40;1.80;;;;;;;24.30;59.75;99056.69;102582;278;120916;-59
2023/08/03 07:40:24;;;;;;;3.90;1.90;;;;;;;24.29;59.78;99050.44;102534;278;106161;-61
2023/08/03 07:43:03;;;;;;;3.70;1.80;;;;;;;24.31;59.69;99039.88;102552;279;113894;-63
2023/08/03 07:45:48;;;;;;;3.80;2.00;;;;;;;24.30;59.75;99034.96;102614;279;94734;-63
2023/08/03 07:48:30;;;;;;;3.70;1.90;;;;;;;24.36;59.87;99050.17;102622;279;96691;-65
2023/08/03 07:51:13;;;;;;;3.50;1.90;;;;;;;24.41;60.06;99059.93;102573;278;120515;-56
2023/08/03 07:53:54;;;;;;;2.90;1.80;;;;;;;24.44;59.99;99054.11;102576;279;104223;-54
2023/08/03 07:56:39;;;;;;;4.60;2.10;;;;;;;24.46;60.17;99067.16;102545;279;114741;-55
2023/08/03 07:59:30;;;;;;;3.80;1.80;;;;;;;24.73;60.03;99067.06;102543;279;93428;-55
2023/08/03 08:02:10;;;;;;;5.80;1.80;;;;;;;24.65;59.54;99026.33;102518;278;96190;-52
2023/08/03 08:04:51;;;;;;;7.30;2.00;;;;;;;24.44;59.71;99005.86;102491;278;119147;-52
2023/08/03 08:07:32;;;;;;;3.60;1.90;;;;;;;24.26;59.69;99027.71;102558;279;106022;-57
2023/08/03 08:10:11;;;;;;;3.00;1.80;;;;;;;24.21;59.92;99031.15;102508;279;113467;-56
2023/08/03 08:12:52;;;;;;;2.60;1.70;;;;;;;24.14;60.29;99021.05;102524;278;93814;-57
2023/08/03 08:15:28;;;;;;;2.30;1.80;;;;;;;24.05;60.43;99037.44;102534;279;98419;-56
2023/08/03 08:18:09;;;;;;;2.30;1.90;;;;;;;23.96;60.55;99059.23;102417;279;121025;-54
2023/08/03 08:20:55;;;;;;;4.50;2.10;;;;;;;23.90;60.83;99090.80;102539;279;105305;-54
2023/08/03 08:23:37;;;;;;;2.40;1.60;;;;;;;23.87;61.02;99106.00;102593;278;113568;-55
2023/08/03 08:26:26;;;;;;;4.30;1.80;;;;;;;23.73;60.89;99092.92;102529;279;94405;-54
2023/08/03 08:29:09;;;;;;;2.80;1.60;;;;;;;23.55;60.94;99079.83;102610;278;96918;-53
2023/08/03 08:31:49;;;;;;;3.20;1.80;;;;;;;23.45;61.17;99075.74;102612;279;120588;-52
2023/08/03 08:34:32;;;;;;;3.10;1.90;;;;;;;23.42;61.49;99060.41;102560;279;107374;-52
2023/08/03 08:37:16;;;;;;;6.00;1.50;;;;;;;23.39;61.85;99040.61;102575;278;113869;-54
2023/08/03 08:39:55;;;;;;;5.20;2.10;;;;;;;23.29;62.39;99074.37;102582;278;94197;-54
2023/08/03 08:42:42;;;;;;;3.90;1.90;;;;;;;23.23;62.75;99107.48;102580;279;97615;-54
2023/08/03 08:45:23;;;;;;;3.00;1.80;;;;;;;23.13;63.11;99123.83;102524;279;121482;-54
2023/08/03 08:48:10;;;;;;;5.10;1.90;;;;;;;23.03;63.45;99116.83;102502;279;105458;-57
2023/08/03 08:50:53;;;;;;;4.90;2.10;;;;;;;22.90;64.32;99117.33;102478;278;113131;-56
2023/08/03 08:53:30;;;;;;;3.90;1.80;;;;;;;22.79;64.38;99101.48;102502;279;96475;-52
2023/08/03 08:56:09;;;;;;;2.80;1.70;;;;;;;22.77;64.74;99159.02;102516;282;96133;-53
2023/08/03 08:58:53;;;;;;;2.90;1.70;;;;;;;22.72;65.45;99186.30;102557;278;120438;-55
2023/08/03 09:01:50;;;;;;;3.90;1.70;;;;;;;22.70;65.89;99145.23;102539;278;105698;-54
2023/08/03 09:04:36;;;;;;;3.00;2.00;;;;;;;22.67;66.30;99156.69;102589;278;114647;-55
2023/08/03 09:07:18;;;;;;;3.80;1.80;;;;;;;22.63;66.58;99105.14;102584;278;94657;-55
2023/08/03 09:10:02;;;;;;;4.40;1.90;;;;;;;22.56;66.62;99128.48;102580;278;98915;-53
2023/08/03 09:12:39;;;;;;;3.70;2.20;;;;;;;22.48;67.02;99164.38;102604;266;118714;-56
2023/08/03 09:15:15;;;;;;;2.30;1.50;;;;;;;22.44;67.32;99193.23;102576;278;105318;-57
2023/08/03 09:18:06;;;;;;;2.50;1.70;;;;;;;22.35;67.68;99195.53;102445;278;114553;-55
2023/08/03 09:20:44;;;;;;;4.00;1.70;;;;;;;22.27;67.76;99187.48;102628;278;93742;-52
2023/08/03 09:23:36;;;;;;;7.30;2.00;;;;;;;22.29;67.97;99168.77;102623;278;97129;-54
2023/08/03 09:26:21;;;;;;;4.60;2.10;;;;;;;22.31;68.00;99145.14;102644;278;119556;-53
2023/08/03 09:28:56;;;;;;;2.80;1.70;;;;;;;22.31;68.03;99113.05;102585;278;106103;-54
2023/08/03 09:31:36;;;;;;;4.40;1.90;;;;;;;22.24;67.84;99122.15;102608;278;114349;-54
2023/08/03 09:34:14;;;;;;;2.30;1.50;;;;;;;22.16;67.86;99136.15;102574;278;93537;-54
2023/08/03 09:36:55;;;;;;;7.10;2.00;;;;;;;22.11;68.06;99160.20;102589;278;97680;-53
2023/08/03 09:39:53;;;;;;;2.70;1.70;;;;;;;22.14;68.24;99194.34;102572;278;121246;-54
2023/08/03 09:42:33;;;;;;;4.80;2.40;;;;;;;22.07;68.48;99147.81;102631;278;105125;-55
2023/08/03 09:45:13;;;;;;;3.00;1.70;;;;;;;22.10;68.32;99131.94;102573;278;115176;-56
2023/08/03 09:47:58;;;;;;;3.10;1.80;;;;;;;22.08;68.28;99165.30;102606;278;94205;-53
2023/08/03 09:50:39;;;;;;;3.30;1.50;;;;;;;22.02;68.36;99164.50;102595;278;96011;-52
2023/08/03 09:53:25;;;;;;;2.70;1.40;;;;;;;21.94;68.29;99162.34;102650;278;121379;-53
2023/08/03 09:56:10;;;;;;;2.80;1.80;;;;;;;21.87;68.24;99133.21;102611;278;104872;-52
2023/08/03 09:58:54;;;;;;;3.00;1.70;;;;;;;21.78;68.04;99087.92;102540;278;114106;-53
2023/08/03 10:01:40;;;;;;;3.30;1.90;;;;;;;21.69;68.14;99080.45;102660;278;94440;-55
2023/08/03 10:04:19;;;;;;;3.00;1.70;;;;;;;21.64;67.97;99150.44;102655;278;97881;-56
2023/08/03 10:07:01;;;;;;;3.20;1.60;;;;;;;21.65;68.15;99224.38;102621;277;120014;-56
2023/08/03 10:09:44;;;;;;;2.10;1.50;;;;;;;21.61;68.21;99250.70;102659;278;104692;-56
2023/08/03 10:12:28;;;;;;;3.40;1.60;;;;;;;21.58;68.07;99253.85;102553;279;116513;-56
2023/08/03 10:15:10;;;;;;;2.40;1.30;;;;;;;21.53;67.74;99255.50;102627;278;93330;-57
2023/08/03 10:17:50;;;;;;;2.30;1.60;;;;;;;21.49;67.89;99273.23;102639;278;97362;-53
2023/08/03 10:20:35;;;;;;;2.60;1.60;;;;;;;21.49;68.12;99255.09;102600;266;120555;-53
2023/08/03 10:23:17;;;;;;;2.40;1.40;;;;;;;21.50;68.31;99209.08;102618;278;105408;-57
2023/08/03 10:25:59;;;;;;;2.70;1.50;;;;;;;21.48;68.56;99122.38;102565;278;113467;-56
2023/08/03 10:28:49;;;;;;;3.50;1.50;;;;;;;21.41;68.78;99161.14;102599;278;95998;-55
2023/08/03 10:31:29;;;;;;;3.20;2.00;;;;;;;21.43;69.11;99237.95;102574;278;96954;-57
2023/08/03 10:34:17;;;;;;;2.80;1.70;;;;;;;21.49;69.47;99238.60;102520;278;120458;-54
2023/08/03 10:36:55;;;;;;;2.80;1.60;;;;;;;21.44;69.28;99229.25;102559;278;105452;-53
2023/08/03 10:39:59;;;;;;;2.60;1.50;;;;;;;21.38;69.51;99211.33;102415;278;113745;-54
2023/08/03 10:42:39;;;;;;;2.40;1.60;;;;;;;21.37;69.23;99223.83;102566;278;94057;-54
2023/08/03 10:45:37;;;;;;;2.80;1.70;;;;;;;21.30;69.50;99194.53;102391;278;97296;-53
2023/08/03 10:48:36;;;;;;;7.00;2.30;;;;;;;21.28;69.89;99190.05;102579;277;122004;-53
2023/08/03 10:51:27;;;;;;;4.80;1.70;;;;;;;21.29;69.70;99157.84;102636;278;105868;-53
2023/08/03 10:54:09;;;;;;;3.00;1.60;;;;;;;21.36;70.04;99154.53;102584;278;114389;-53
2023/08/03 11:00:01;;;;;;;2.40;1.60;;;;;;;21.59;70.26;99078.27;100457;307;618771;-51
2023/08/03 11:02:44;;;;;;;3.00;1.70;;;;;;;21.64;70.27;99071.73;101994;287;95526;-54
2023/08/03 11:05:37;;;;;;;4.20;1.70;;;;;;;21.62;70.25;99117.05;101881;288;97251;-54
2023/08/03 11:08:21;;;;;;;3.10;1.90;;;;;;;21.49;70.28;99163.58;101953;287;116896;-54
2023/08/03 11:11:00;;;;;;;3.00;1.60;;;;;;;21.41;70.39;99146.73;101996;287;104639;-53
2023/08/03 11:13:39;;;;;;;3.10;1.80;;;;;;;21.36;70.66;99155.26;101569;287;482966;-54
2023/08/03 11:16:23;;;;;;;2.80;2.00;;;;;;;21.36;70.96;99226.80;102015;284;97219;-59
2023/08/03 11:19:09;;;;;;;2.80;2.10;;;;;;;21.32;71.23;99244.08;102034;284;98019;-55
2023/08/03 11:21:47;;;;;;;6.20;2.10;;;;;;;21.29;71.54;99229.48;102151;281;117229;-53
2023/08/03 11:24:23;;;;;;;5.30;2.10;;;;;;;21.25;72.12;99263.10;102233;281;105277;-52
2023/08/03 11:27:02;;;;;;;3.70;2.00;;;;;;;21.23;72.37;99282.56;102388;280;113313;-54
2023/08/03 11:29:40;;;;;;;3.80;1.90;;;;;;;21.22;72.73;99287.23;102382;280;94554;-54
2023/08/03 11:32:26;;;;;;;3.50;1.80;;;;;;;21.29;72.80;99283.72;102421;280;97941;-52
2023/08/03 11:35:14;;;;;;;2.90;1.80;;;;;;;21.28;72.88;99290.11;102403;280;118651;-52
2023/08/03 11:37:54;;;;;;;2.40;1.90;;;;;;;21.17;73.16;99297.27;102425;280;105708;-52
2023/08/03 11:40:32;;;;;;;3.00;1.80;;;;;;;21.07;73.38;99288.59;102373;280;114399;-52
2023/08/03 11:43:13;;;;;;;2.70;2.10;;;;;;;21.00;73.41;99274.00;102414;280;93751;-55
2023/08/03 11:46:00;;;;;;;5.30;2.00;;;;;;;20.97;73.38;99263.98;102462;280;97265;-54
2023/08/03 11:48:46;;;;;;;4.00;2.00;;;;;;;20.90;73.72;99245.68;102411;280;116230;-52
2023/08/03 11:51:32;;;;;;;4.20;2.20;;;;;;;20.91;73.74;99257.92;102402;280;104886;-54
2023/08/03 11:54:10;;;;;;;3.30;2.00;;;;;;;20.90;73.76;99219.27;102363;280;114877;-55
2023/08/03 11:56:49;;;;;;;3.70;2.00;;;;;;;20.91;74.12;99257.65;102398;280;96630;-52
2023/08/03 11:59:37;;;;;;;3.70;2.10;;;;;;;20.80;74.17;99263.32;102391;280;98489;-52
2023/08/03 12:02:16;;;;;;;3.50;2.00;;;;;;;20.85;74.28;99217.13;102434;280;118176;-56
2023/08/03 12:05:07;;;;;;;3.30;1.80;;;;;;;20.98;74.07;99203.12;102432;280;104595;-57
2023/08/03 12:07:47;;;;;;;5.00;2.10;;;;;;;21.11;73.58;99174.81;102406;280;114850;-53
2023/08/03 12:10:29;;;;;;;5.00;2.20;;;;;;;21.17;73.39;99184.31;102349;280;95070;-56
2023/08/03 12:13:09;;;;;;;3.10;2.00;;;;;;;21.23;73.28;99183.23;102431;280;98596;-52
2023/08/03 12:15:46;;;;;;;3.10;2.10;;;;;;;21.24;73.08;99197.50;102400;280;117448;-52
2023/08/03 12:18:23;;;;;;;3.30;1.80;;;;;;;21.20;72.92;99206.27;102433;280;104623;-53
2023/08/03 12:21:03;;;;;;;3.70;1.60;;;;;;;21.23;72.85;99181.27;102402;280;114068;-53
2023/08/03 12:23:51;;;;;;;2.60;1.90;;;;;;;21.19;72.60;99192.48;102377;280;96626;-54
2023/08/03 12:26:33;;;;;;;2.90;2.00;;;;;;;21.06;72.54;99228.34;102398;280;97853;-52
2023/08/03 12:29:13;;;;;;;3.00;2.00;;;;;;;21.03;72.61;99228.62;102449;280;119281;-52
2023/08/03 12:31:52;;;;;;;2.50;2.10;;;;;;;21.12;72.54;99227.27;102588;278;104167;-52
2023/08/03 12:34:36;;;;;;;2.60;1.90;;;;;;;21.24;72.37;99235.75;102523;278;114019;-52
2023/08/03 12:37:21;;;;;;;3.00;2.10;;;;;;;21.35;72.22;99224.28;102578;279;93042;-56
2023/08/03 12:40:01;;;;;;;2.90;1.80;;;;;;;21.36;71.96;99179.26;102543;278;98027;-56